sensor_id;sensor_type;location;lat;lon;timestamp;P1;durP1;ratioP1;P2;durP2;ratioP2
58101;SDS011;52034;51.926;6.320;2023-03-01T00:00:49;16.90;;;13.13;;
58101;SDS011;52034;51.926;6.320;2023-03-01T00:01:50;17.47;;;13.43;;
58101;SDS011;52034;51.926;6.320;2023-03-01T00:02:50;16.50;;;12.67;;
58101;SDS011;52034;51.926;6.320;2023-03-01T00:03:51;18.23;;;12.90;;
58101;SDS011;52034;51.926;6.320;2023-03-01T00:04:51;15.02;;;12.63;;
58101;SDS011;52034;51.926;6.320;2023-03-01T00:05:52;15.33;;;12.23;;
58101;SDS011;52034;51.926;6.320;2023-03-01T00:06:52;15.00;;;12.10;;
58101;SDS011;52034;51.926;6.320;2023-03-01T00:07:53;13.47;;;12.07;;
58101;SDS011;52034;51.926;6.320;2023-03-01T00:08:53;13.10;;;11.70;;
58101;SDS011;52034;51.926;6.320;2023-03-01T00:09:54;14.97;;;12.10;;
58101;SDS011;52034;51.926;6.320;2023-03-01T00:11:04;16.03;;;11.43;;
58101;SDS011;52034;51.926;6.320;2023-03-01T00:12:15;17.08;;;12.50;;
58101;SDS011;52034;51.926;6.320;2023-03-01T00:13:16;17.33;;;12.55;;
58101;SDS011;52034;51.926;6.320;2023-03-01T00:14:16;16.20;;;12.47;;
58101;SDS011;52034;51.926;6.320;2023-03-01T00:15:17;15.20;;;12.30;;
58101;SDS011;52034;51.926;6.320;2023-03-01T00:16:19;13.93;;;11.50;;
58101;SDS011;52034;51.926;6.320;2023-03-01T00:17:21;16.17;;;12.65;;
58101;SDS011;52034;51.926;6.320;2023-03-01T00:18:21;15.27;;;12.67;;
58101;SDS011;52034;51.926;6.320;2023-03-01T00:19:22;14.02;;;11.50;;
58101;SDS011;52034;51.926;6.320;2023-03-01T00:20:23;13.73;;;12.10;;
58101;SDS011;52034;51.926;6.320;2023-03-01T00:21:24;13.13;;;11.43;;
58101;SDS011;52034;51.926;6.320;2023-03-01T00:22:26;13.70;;;11.40;;
58101;SDS011;52034;51.926;6.320;2023-03-01T00:23:28;13.32;;;11.05;;
58101;SDS011;52034;51.926;6.320;2023-03-01T00:24:29;12.32;;;10.70;;
58101;SDS011;52034;51.926;6.320;2023-03-01T00:25:29;12.70;;;11.40;;
58101;SDS011;52034;51.926;6.320;2023-03-01T00:26:29;13.00;;;11.53;;
58101;SDS011;52034;51.926;6.320;2023-03-01T00:27:30;14.30;;;11.82;;
58101;SDS011;52034;51.926;6.320;2023-03-01T00:28:31;12.53;;;11.27;;
58101;SDS011;52034;51.926;6.320;2023-03-01T00:29:31;12.88;;;11.57;;
58101;SDS011;52034;51.926;6.320;2023-03-01T00:30:32;13.30;;;11.83;;
58101;SDS011;52034;51.926;6.320;2023-03-01T00:31:33;12.88;;;11.57;;
58101;SDS011;52034;51.926;6.320;2023-03-01T00:32:33;13.37;;;11.97;;
58101;SDS011;52034;51.926;6.320;2023-03-01T00:33:34;14.53;;;11.63;;
58101;SDS011;52034;51.926;6.320;2023-03-01T00:34:34;14.70;;;11.73;;
58101;SDS011;52034;51.926;6.320;2023-03-01T00:35:35;12.23;;;11.03;;
58101;SDS011;52034;51.926;6.320;2023-03-01T00:36:36;13.20;;;11.30;;
58101;SDS011;52034;51.926;6.320;2023-03-01T00:37:37;12.60;;;11.30;;
58101;SDS011;52034;51.926;6.320;2023-03-01T00:38:38;14.80;;;11.60;;
58101;SDS011;52034;51.926;6.320;2023-03-01T00:39:40;13.82;;;11.10;;
58101;SDS011;52034;51.926;6.320;2023-03-01T00:40:40;13.00;;;11.67;;
58101;SDS011;52034;51.926;6.320;2023-03-01T00:41:41;14.30;;;11.30;;
58101;SDS011;52034;51.926;6.320;2023-03-01T00:42:42;12.38;;;11.10;;
58101;SDS011;52034;51.926;6.320;2023-03-01T00:43:42;13.70;;;12.17;;
58101;SDS011;52034;51.926;6.320;2023-03-01T00:44:43;12.88;;;11.02;;
58101;SDS011;52034;51.926;6.320;2023-03-01T00:45:44;14.53;;;11.93;;
58101;SDS011;52034;51.926;6.320;2023-03-01T00:46:44;14.53;;;11.67;;
58101;SDS011;52034;51.926;6.320;2023-03-01T00:47:44;13.67;;;11.80;;
58101;SDS011;52034;51.926;6.320;2023-03-01T00:48:45;13.50;;;12.20;;
58101;SDS011;52034;51.926;6.320;2023-03-01T00:49:45;13.35;;;11.95;;
58101;SDS011;52034;51.926;6.320;2023-03-01T00:50:46;14.60;;;12.10;;
58101;SDS011;52034;51.926;6.320;2023-03-01T00:51:46;14.30;;;12.87;;
58101;SDS011;52034;51.926;6.320;2023-03-01T00:52:46;14.00;;;12.60;;
58101;SDS011;52034;51.926;6.320;2023-03-01T00:53:47;13.40;;;12.07;;
58101;SDS011;52034;51.926;6.320;2023-03-01T00:54:53;15.38;;;12.63;;
58101;SDS011;52034;51.926;6.320;2023-03-01T00:55:53;14.47;;;12.83;;
58101;SDS011;52034;51.926;6.320;2023-03-01T00:56:57;14.65;;;12.43;;
58101;SDS011;52034;51.926;6.320;2023-03-01T00:57:57;14.03;;;12.63;;
58101;SDS011;52034;51.926;6.320;2023-03-01T00:58:57;14.13;;;12.60;;
58101;SDS011;52034;51.926;6.320;2023-03-01T00:59:58;13.90;;;12.50;;
58101;SDS011;52034;51.926;6.320;2023-03-01T01:00:59;14.30;;;12.82;;
58101;SDS011;52034;51.926;6.320;2023-03-01T01:02:00;15.10;;;12.67;;
58101;SDS011;52034;51.926;6.320;2023-03-01T01:03:00;13.83;;;12.27;;
58101;SDS011;52034;51.926;6.320;2023-03-01T01:04:02;16.20;;;12.67;;
58101;SDS011;52034;51.926;6.320;2023-03-01T01:05:05;14.95;;;13.10;;
58101;SDS011;52034;51.926;6.320;2023-03-01T01:06:12;14.35;;;12.65;;
58101;SDS011;52034;51.926;6.320;2023-03-01T01:07:14;14.52;;;13.05;;
58101;SDS011;52034;51.926;6.320;2023-03-01T01:08:14;13.25;;;11.93;;
58101;SDS011;52034;51.926;6.320;2023-03-01T01:09:16;14.70;;;12.77;;
58101;SDS011;52034;51.926;6.320;2023-03-01T01:10:17;15.27;;;13.68;;
58101;SDS011;52034;51.926;6.320;2023-03-01T01:11:21;14.88;;;13.05;;
58101;SDS011;52034;51.926;6.320;2023-03-01T01:12:22;14.07;;;12.75;;
58101;SDS011;52034;51.926;6.320;2023-03-01T01:13:23;14.50;;;13.03;;
58101;SDS011;52034;51.926;6.320;2023-03-01T01:14:23;15.10;;;13.50;;
58101;SDS011;52034;51.926;6.320;2023-03-01T01:15:23;14.53;;;13.00;;
58101;SDS011;52034;51.926;6.320;2023-03-01T01:16:24;16.23;;;12.83;;
58101;SDS011;52034;51.926;6.320;2023-03-01T01:17:26;14.98;;;13.43;;
58101;SDS011;52034;51.926;6.320;2023-03-01T01:18:27;14.37;;;12.63;;
58101;SDS011;52034;51.926;6.320;2023-03-01T01:19:27;15.63;;;12.83;;
58101;SDS011;52034;51.926;6.320;2023-03-01T01:20:29;16.80;;;13.70;;
58101;SDS011;52034;51.926;6.320;2023-03-01T01:21:29;16.43;;;13.33;;
58101;SDS011;52034;51.926;6.320;2023-03-01T01:22:30;20.08;;;14.25;;
58101;SDS011;52034;51.926;6.320;2023-03-01T01:23:31;16.73;;;14.00;;
58101;SDS011;52034;51.926;6.320;2023-03-01T01:24:31;16.63;;;14.20;;
58101;SDS011;52034;51.926;6.320;2023-03-01T01:25:33;17.03;;;13.87;;
58101;SDS011;52034;51.926;6.320;2023-03-01T01:26:34;17.42;;;13.65;;
58101;SDS011;52034;51.926;6.320;2023-03-01T01:27:35;16.10;;;14.33;;
58101;SDS011;52034;51.926;6.320;2023-03-01T01:28:35;15.20;;;13.60;;
58101;SDS011;52034;51.926;6.320;2023-03-01T01:29:36;18.05;;;13.15;;
58101;SDS011;52034;51.926;6.320;2023-03-01T01:30:37;15.68;;;13.65;;
58101;SDS011;52034;51.926;6.320;2023-03-01T01:31:38;14.60;;;13.17;;
58101;SDS011;52034;51.926;6.320;2023-03-01T01:32:40;16.08;;;13.25;;
58101;SDS011;52034;51.926;6.320;2023-03-01T01:33:41;14.70;;;12.67;;
58101;SDS011;52034;51.926;6.320;2023-03-01T01:34:41;16.30;;;13.47;;
58101;SDS011;52034;51.926;6.320;2023-03-01T01:35:44;16.60;;;13.97;;
58101;SDS011;52034;51.926;6.320;2023-03-01T01:36:51;14.85;;;12.95;;
58101;SDS011;52034;51.926;6.320;2023-03-01T01:37:56;15.02;;;12.25;;
58101;SDS011;52034;51.926;6.320;2023-03-01T01:38:56;16.33;;;13.37;;
58101;SDS011;52034;51.926;6.320;2023-03-01T01:39:57;14.90;;;13.30;;
58101;SDS011;52034;51.926;6.320;2023-03-01T01:40:59;14.68;;;12.82;;
58101;SDS011;52034;51.926;6.320;2023-03-01T01:42:00;15.50;;;13.90;;
58101;SDS011;52034;51.926;6.320;2023-03-01T01:45:24;15.48;;;12.45;;
58101;SDS011;52034;51.926;6.320;2023-03-01T01:46:32;15.52;;;13.23;;
58101;SDS011;52034;51.926;6.320;2023-03-01T01:47:36;14.77;;;12.75;;
58101;SDS011;52034;51.926;6.320;2023-03-01T01:48:43;13.93;;;12.48;;
58101;SDS011;52034;51.926;6.320;2023-03-01T01:49:53;13.52;;;12.15;;
58101;SDS011;52034;51.926;6.320;2023-03-01T01:50:59;13.60;;;12.10;;
58101;SDS011;52034;51.926;6.320;2023-03-01T01:52:05;14.13;;;12.40;;
58101;SDS011;52034;51.926;6.320;2023-03-01T01:53:16;14.93;;;13.43;;
58101;SDS011;52034;51.926;6.320;2023-03-01T01:54:23;15.07;;;12.35;;
58101;SDS011;52034;51.926;6.320;2023-03-01T01:55:29;14.25;;;12.70;;
58101;SDS011;52034;51.926;6.320;2023-03-01T01:56:30;14.00;;;12.40;;
58101;SDS011;52034;51.926;6.320;2023-03-01T01:57:34;14.90;;;12.57;;
58101;SDS011;52034;51.926;6.320;2023-03-01T01:58:40;16.38;;;13.25;;
58101;SDS011;52034;51.926;6.320;2023-03-01T01:59:43;14.80;;;12.85;;
58101;SDS011;52034;51.926;6.320;2023-03-01T02:00:47;16.15;;;13.07;;
58101;SDS011;52034;51.926;6.320;2023-03-01T02:01:49;13.95;;;12.50;;
58101;SDS011;52034;51.926;6.320;2023-03-01T02:02:50;18.57;;;13.17;;
58101;SDS011;52034;51.926;6.320;2023-03-01T02:03:55;14.40;;;12.90;;
58101;SDS011;52034;51.926;6.320;2023-03-01T02:05:00;13.93;;;12.23;;
58101;SDS011;52034;51.926;6.320;2023-03-01T02:07:15;15.63;;;12.52;;
58101;SDS011;52034;51.926;6.320;2023-03-01T02:08:25;14.90;;;12.77;;
58101;SDS011;52034;51.926;6.320;2023-03-01T02:09:27;14.15;;;12.75;;
58101;SDS011;52034;51.926;6.320;2023-03-01T02:10:28;13.90;;;12.30;;
58101;SDS011;52034;51.926;6.320;2023-03-01T02:11:30;14.70;;;12.48;;
58101;SDS011;52034;51.926;6.320;2023-03-01T02:12:32;15.05;;;13.40;;
58101;SDS011;52034;51.926;6.320;2023-03-01T02:13:35;15.18;;;13.57;;
58101;SDS011;52034;51.926;6.320;2023-03-01T02:14:36;14.73;;;13.23;;
58101;SDS011;52034;51.926;6.320;2023-03-01T02:15:38;15.00;;;13.43;;
58101;SDS011;52034;51.926;6.320;2023-03-01T02:16:40;14.60;;;13.10;;
58101;SDS011;52034;51.926;6.320;2023-03-01T02:17:41;15.82;;;14.13;;
58101;SDS011;52034;51.926;6.320;2023-03-01T02:18:42;15.13;;;13.53;;
58101;SDS011;52034;51.926;6.320;2023-03-01T02:22:16;15.20;;;13.35;;
58101;SDS011;52034;51.926;6.320;2023-03-01T02:23:28;15.73;;;13.43;;
58101;SDS011;52034;51.926;6.320;2023-03-01T02:24:41;15.00;;;13.35;;
58101;SDS011;52034;51.926;6.320;2023-03-01T02:25:55;15.15;;;13.50;;
58101;SDS011;52034;51.926;6.320;2023-03-01T02:27:18;14.63;;;13.13;;
58101;SDS011;52034;51.926;6.320;2023-03-01T02:28:25;15.48;;;13.88;;
58101;SDS011;52034;51.926;6.320;2023-03-01T02:29:29;16.23;;;13.57;;
58101;SDS011;52034;51.926;6.320;2023-03-01T02:30:29;15.07;;;13.53;;
58101;SDS011;52034;51.926;6.320;2023-03-01T02:31:32;15.18;;;13.68;;
58101;SDS011;52034;51.926;6.320;2023-03-01T02:32:42;14.95;;;13.02;;
58101;SDS011;52034;51.926;6.320;2023-03-01T02:33:42;16.17;;;13.57;;
58101;SDS011;52034;51.926;6.320;2023-03-01T02:35:44;17.30;;;14.68;;
58101;SDS011;52034;51.926;6.320;2023-03-01T02:36:49;16.05;;;13.60;;
58101;SDS011;52034;51.926;6.320;2023-03-01T02:37:53;15.18;;;13.57;;
58101;SDS011;52034;51.926;6.320;2023-03-01T02:38:57;15.40;;;13.80;;
58101;SDS011;52034;51.926;6.320;2023-03-01T02:40:03;16.85;;;14.32;;
58101;SDS011;52034;51.926;6.320;2023-03-01T02:41:05;15.35;;;13.63;;
58101;SDS011;52034;51.926;6.320;2023-03-01T02:42:09;16.63;;;13.80;;
58101;SDS011;52034;51.926;6.320;2023-03-01T02:43:12;15.82;;;13.30;;
58101;SDS011;52034;51.926;6.320;2023-03-01T02:44:14;15.35;;;13.80;;
58101;SDS011;52034;51.926;6.320;2023-03-01T02:45:14;16.50;;;13.93;;
58101;SDS011;52034;51.926;6.320;2023-03-01T02:46:16;15.73;;;13.63;;
58101;SDS011;52034;51.926;6.320;2023-03-01T02:47:20;15.15;;;13.55;;
58101;SDS011;52034;51.926;6.320;2023-03-01T02:48:20;15.77;;;14.03;;
58101;SDS011;52034;51.926;6.320;2023-03-01T02:49:23;14.93;;;13.43;;
58101;SDS011;52034;51.926;6.320;2023-03-01T02:55:23;16.10;;;13.60;;
58101;SDS011;52034;51.926;6.320;2023-03-01T02:56:24;16.00;;;14.20;;
58101;SDS011;52034;51.926;6.320;2023-03-01T02:57:25;16.25;;;13.85;;
58101;SDS011;52034;51.926;6.320;2023-03-01T02:58:28;16.45;;;14.35;;
58101;SDS011;52034;51.926;6.320;2023-03-01T02:59:30;15.88;;;14.00;;
58101;SDS011;52034;51.926;6.320;2023-03-01T03:00:38;16.70;;;13.68;;
58101;SDS011;52034;51.926;6.320;2023-03-01T03:01:45;16.05;;;13.90;;
58101;SDS011;52034;51.926;6.320;2023-03-01T03:02:47;15.67;;;13.97;;
58101;SDS011;52034;51.926;6.320;2023-03-01T03:03:51;15.73;;;13.32;;
58101;SDS011;52034;51.926;6.320;2023-03-01T03:04:52;14.97;;;13.37;;
58101;SDS011;52034;51.926;6.320;2023-03-01T03:05:53;15.07;;;13.52;;
58101;SDS011;52034;51.926;6.320;2023-03-01T03:06:54;16.50;;;13.10;;
58101;SDS011;52034;51.926;6.320;2023-03-01T03:07:54;15.37;;;13.57;;
58101;SDS011;52034;51.926;6.320;2023-03-01T03:08:55;15.43;;;13.82;;
58101;SDS011;52034;51.926;6.320;2023-03-01T03:09:56;15.10;;;13.60;;
58101;SDS011;52034;51.926;6.320;2023-03-01T03:10:56;16.20;;;13.97;;
58101;SDS011;52034;51.926;6.320;2023-03-01T03:11:57;17.40;;;14.07;;
58101;SDS011;52034;51.926;6.320;2023-03-01T03:12:59;15.53;;;13.67;;
58101;SDS011;52034;51.926;6.320;2023-03-01T03:14:04;14.93;;;13.15;;
58101;SDS011;52034;51.926;6.320;2023-03-01T03:15:06;16.75;;;13.90;;
58101;SDS011;52034;51.926;6.320;2023-03-01T03:16:09;15.88;;;13.98;;
58101;SDS011;52034;51.926;6.320;2023-03-01T03:17:09;18.27;;;13.67;;
58101;SDS011;52034;51.926;6.320;2023-03-01T03:18:11;17.97;;;14.00;;
58101;SDS011;52034;51.926;6.320;2023-03-01T03:19:17;15.52;;;13.85;;
58101;SDS011;52034;51.926;6.320;2023-03-01T03:20:19;17.10;;;14.95;;
58101;SDS011;52034;51.926;6.320;2023-03-01T03:21:21;17.27;;;13.98;;
58101;SDS011;52034;51.926;6.320;2023-03-01T03:22:22;15.13;;;13.53;;
58101;SDS011;52034;51.926;6.320;2023-03-01T03:23:22;16.20;;;14.43;;
58101;SDS011;52034;51.926;6.320;2023-03-01T03:24:23;17.50;;;13.52;;
58101;SDS011;52034;51.926;6.320;2023-03-01T03:25:23;16.63;;;14.03;;
58101;SDS011;52034;51.926;6.320;2023-03-01T03:26:24;16.33;;;14.27;;
58101;SDS011;52034;51.926;6.320;2023-03-01T03:27:25;16.08;;;14.38;;
58101;SDS011;52034;51.926;6.320;2023-03-01T03:28:25;16.03;;;13.90;;
58101;SDS011;52034;51.926;6.320;2023-03-01T03:29:26;15.17;;;13.57;;
58101;SDS011;52034;51.926;6.320;2023-03-01T03:30:27;16.30;;;14.27;;
58101;SDS011;52034;51.926;6.320;2023-03-01T03:31:29;16.35;;;13.93;;
58101;SDS011;52034;51.926;6.320;2023-03-01T03:32:30;15.53;;;13.90;;
58101;SDS011;52034;51.926;6.320;2023-03-01T03:33:30;15.47;;;12.93;;
58101;SDS011;52034;51.926;6.320;2023-03-01T03:34:31;16.45;;;14.27;;
58101;SDS011;52034;51.926;6.320;2023-03-01T03:35:32;15.97;;;14.23;;
58101;SDS011;52034;51.926;6.320;2023-03-01T03:36:37;16.35;;;14.15;;
58101;SDS011;52034;51.926;6.320;2023-03-01T03:37:38;16.13;;;14.43;;
58101;SDS011;52034;51.926;6.320;2023-03-01T03:38:58;16.98;;;13.77;;
58101;SDS011;52034;51.926;6.320;2023-03-01T03:39:58;15.20;;;13.53;;
58101;SDS011;52034;51.926;6.320;2023-03-01T03:41:03;17.80;;;13.43;;
58101;SDS011;52034;51.926;6.320;2023-03-01T03:42:05;17.27;;;14.00;;
58101;SDS011;52034;51.926;6.320;2023-03-01T03:43:06;15.77;;;14.17;;
58101;SDS011;52034;51.926;6.320;2023-03-01T03:44:12;17.75;;;14.95;;
58101;SDS011;52034;51.926;6.320;2023-03-01T03:45:12;16.33;;;14.03;;
58101;SDS011;52034;51.926;6.320;2023-03-01T03:46:12;17.83;;;14.97;;
58101;SDS011;52034;51.926;6.320;2023-03-01T03:47:13;17.40;;;15.10;;
58101;SDS011;52034;51.926;6.320;2023-03-01T03:48:13;17.13;;;14.37;;
58101;SDS011;52034;51.926;6.320;2023-03-01T03:49:14;15.18;;;13.57;;
58101;SDS011;52034;51.926;6.320;2023-03-01T03:50:15;16.67;;;14.70;;
58101;SDS011;52034;51.926;6.320;2023-03-01T03:52:18;16.50;;;14.25;;
58101;SDS011;52034;51.926;6.320;2023-03-01T03:53:19;16.57;;;14.77;;
58101;SDS011;52034;51.926;6.320;2023-03-01T03:54:20;15.95;;;14.25;;
58101;SDS011;52034;51.926;6.320;2023-03-01T03:55:20;15.87;;;14.20;;
58101;SDS011;52034;51.926;6.320;2023-03-01T03:56:20;17.23;;;15.43;;
58101;SDS011;52034;51.926;6.320;2023-03-01T03:57:21;15.85;;;13.77;;
58101;SDS011;52034;51.926;6.320;2023-03-01T03:58:22;15.97;;;14.27;;
58101;SDS011;52034;51.926;6.320;2023-03-01T03:59:24;15.80;;;14.02;;
58101;SDS011;52034;51.926;6.320;2023-03-01T04:00:24;17.73;;;14.77;;
58101;SDS011;52034;51.926;6.320;2023-03-01T04:01:24;15.07;;;13.43;;
58101;SDS011;52034;51.926;6.320;2023-03-01T04:02:25;15.93;;;14.17;;
58101;SDS011;52034;51.926;6.320;2023-03-01T04:03:26;15.48;;;13.88;;
58101;SDS011;52034;51.926;6.320;2023-03-01T04:04:27;15.77;;;14.07;;
58101;SDS011;52034;51.926;6.320;2023-03-01T04:05:28;16.27;;;14.50;;
58101;SDS011;52034;51.926;6.320;2023-03-01T04:06:29;16.63;;;14.20;;
58101;SDS011;52034;51.926;6.320;2023-03-01T04:07:29;20.10;;;14.83;;
58101;SDS011;52034;51.926;6.320;2023-03-01T04:08:30;16.90;;;15.13;;
58101;SDS011;52034;51.926;6.320;2023-03-01T04:09:30;15.87;;;13.87;;
58101;SDS011;52034;51.926;6.320;2023-03-01T04:10:31;18.07;;;14.33;;
58101;SDS011;52034;51.926;6.320;2023-03-01T04:11:36;15.98;;;14.15;;
58101;SDS011;52034;51.926;6.320;2023-03-01T04:12:38;18.33;;;14.07;;
58101;SDS011;52034;51.926;6.320;2023-03-01T04:13:38;16.13;;;14.40;;
58101;SDS011;52034;51.926;6.320;2023-03-01T04:14:39;16.23;;;14.00;;
58101;SDS011;52034;51.926;6.320;2023-03-01T04:15:39;15.53;;;13.90;;
58101;SDS011;52034;51.926;6.320;2023-03-01T04:16:40;17.40;;;14.10;;
58101;SDS011;52034;51.926;6.320;2023-03-01T04:17:44;16.93;;;14.20;;
58101;SDS011;52034;51.926;6.320;2023-03-01T04:18:46;15.93;;;14.10;;
58101;SDS011;52034;51.926;6.320;2023-03-01T04:19:47;15.20;;;13.70;;
58101;SDS011;52034;51.926;6.320;2023-03-01T04:20:48;17.05;;;14.70;;
58101;SDS011;52034;51.926;6.320;2023-03-01T04:21:52;17.20;;;14.10;;
58101;SDS011;52034;51.926;6.320;2023-03-01T04:22:57;16.33;;;14.73;;
58101;SDS011;52034;51.926;6.320;2023-03-01T04:24:13;17.40;;;14.75;;
58101;SDS011;52034;51.926;6.320;2023-03-01T04:25:13;15.60;;;14.00;;
58101;SDS011;52034;51.926;6.320;2023-03-01T04:26:14;17.70;;;14.57;;
58101;SDS011;52034;51.926;6.320;2023-03-01T04:27:14;19.73;;;14.63;;
58101;SDS011;52034;51.926;6.320;2023-03-01T04:28:15;18.00;;;14.40;;
58101;SDS011;52034;51.926;6.320;2023-03-01T04:29:16;17.08;;;14.48;;
58101;SDS011;52034;51.926;6.320;2023-03-01T04:30:16;16.60;;;14.10;;
58101;SDS011;52034;51.926;6.320;2023-03-01T04:31:17;15.57;;;13.87;;
58101;SDS011;52034;51.926;6.320;2023-03-01T04:32:20;18.98;;;14.50;;
58101;SDS011;52034;51.926;6.320;2023-03-01T04:33:21;14.93;;;13.00;;
58101;SDS011;52034;51.926;6.320;2023-03-01T04:34:22;16.23;;;13.70;;
58101;SDS011;52034;51.926;6.320;2023-03-01T04:35:22;20.27;;;14.30;;
58101;SDS011;52034;51.926;6.320;2023-03-01T04:36:24;16.73;;;13.93;;
58101;SDS011;52034;51.926;6.320;2023-03-01T04:37:26;17.33;;;14.15;;
58101;SDS011;52034;51.926;6.320;2023-03-01T04:38:27;17.50;;;14.73;;
58101;SDS011;52034;51.926;6.320;2023-03-01T04:39:27;18.10;;;14.13;;
58101;SDS011;52034;51.926;6.320;2023-03-01T04:40:28;17.50;;;14.47;;
58101;SDS011;52034;51.926;6.320;2023-03-01T04:41:28;17.13;;;14.80;;
58101;SDS011;52034;51.926;6.320;2023-03-01T04:42:28;16.03;;;14.23;;
58101;SDS011;52034;51.926;6.320;2023-03-01T04:43:29;15.77;;;13.93;;
58101;SDS011;52034;51.926;6.320;2023-03-01T04:44:29;15.33;;;13.70;;
58101;SDS011;52034;51.926;6.320;2023-03-01T04:45:31;17.20;;;14.73;;
58101;SDS011;52034;51.926;6.320;2023-03-01T04:46:32;16.55;;;14.32;;
58101;SDS011;52034;51.926;6.320;2023-03-01T04:47:32;15.73;;;14.10;;
58101;SDS011;52034;51.926;6.320;2023-03-01T04:48:32;15.60;;;14.00;;
58101;SDS011;52034;51.926;6.320;2023-03-01T04:49:33;15.97;;;14.00;;
58101;SDS011;52034;51.926;6.320;2023-03-01T04:50:34;17.23;;;13.93;;
58101;SDS011;52034;51.926;6.320;2023-03-01T04:51:34;16.17;;;14.10;;
58101;SDS011;52034;51.926;6.320;2023-03-01T04:52:35;18.37;;;14.33;;
58101;SDS011;52034;51.926;6.320;2023-03-01T04:53:35;16.03;;;13.93;;
58101;SDS011;52034;51.926;6.320;2023-03-01T04:54:38;16.00;;;14.25;;
58101;SDS011;52034;51.926;6.320;2023-03-01T04:55:39;16.60;;;14.47;;
58101;SDS011;52034;51.926;6.320;2023-03-01T04:56:39;16.33;;;14.43;;
58101;SDS011;52034;51.926;6.320;2023-03-01T04:57:40;17.60;;;14.60;;
58101;SDS011;52034;51.926;6.320;2023-03-01T04:58:41;15.73;;;13.95;;
58101;SDS011;52034;51.926;6.320;2023-03-01T04:59:41;16.33;;;13.95;;
58101;SDS011;52034;51.926;6.320;2023-03-01T05:00:42;15.80;;;14.20;;
58101;SDS011;52034;51.926;6.320;2023-03-01T05:01:42;17.23;;;14.03;;
58101;SDS011;52034;51.926;6.320;2023-03-01T05:02:42;17.17;;;14.57;;
58101;SDS011;52034;51.926;6.320;2023-03-01T05:03:43;18.87;;;14.13;;
58101;SDS011;52034;51.926;6.320;2023-03-01T05:04:45;16.80;;;14.27;;
58101;SDS011;52034;51.926;6.320;2023-03-01T05:05:46;15.10;;;13.47;;
58101;SDS011;52034;51.926;6.320;2023-03-01T05:06:48;16.42;;;14.65;;
58101;SDS011;52034;51.926;6.320;2023-03-01T05:07:49;15.65;;;14.05;;
58101;SDS011;52034;51.926;6.320;2023-03-01T05:08:49;16.73;;;14.37;;
58101;SDS011;52034;51.926;6.320;2023-03-01T05:09:50;16.27;;;14.57;;
58101;SDS011;52034;51.926;6.320;2023-03-01T05:10:51;16.63;;;14.13;;
58101;SDS011;52034;51.926;6.320;2023-03-01T05:11:52;17.77;;;14.90;;
58101;SDS011;52034;51.926;6.320;2023-03-01T05:12:52;16.90;;;14.90;;
58101;SDS011;52034;51.926;6.320;2023-03-01T05:13:53;15.90;;;14.17;;
58101;SDS011;52034;51.926;6.320;2023-03-01T05:15:56;17.10;;;14.35;;
58101;SDS011;52034;51.926;6.320;2023-03-01T05:16:58;16.90;;;14.90;;
58101;SDS011;52034;51.926;6.320;2023-03-01T05:18:03;16.38;;;14.63;;
58101;SDS011;52034;51.926;6.320;2023-03-01T05:19:04;17.17;;;15.30;;
58101;SDS011;52034;51.926;6.320;2023-03-01T05:20:11;15.57;;;14.07;;
58101;SDS011;52034;51.926;6.320;2023-03-01T05:21:12;16.57;;;14.43;;
58101;SDS011;52034;51.926;6.320;2023-03-01T05:22:15;19.55;;;14.82;;
58101;SDS011;52034;51.926;6.320;2023-03-01T05:23:16;18.03;;;14.40;;
58101;SDS011;52034;51.926;6.320;2023-03-01T05:24:16;17.70;;;15.33;;
58101;SDS011;52034;51.926;6.320;2023-03-01T05:25:17;18.27;;;14.93;;
58101;SDS011;52034;51.926;6.320;2023-03-01T05:26:19;18.07;;;14.87;;
58101;SDS011;52034;51.926;6.320;2023-03-01T05:27:21;17.58;;;14.88;;
58101;SDS011;52034;51.926;6.320;2023-03-01T05:28:22;17.10;;;14.03;;
58101;SDS011;52034;51.926;6.320;2023-03-01T05:29:23;16.83;;;14.80;;
58101;SDS011;52034;51.926;6.320;2023-03-01T05:30:25;17.02;;;14.55;;
58101;SDS011;52034;51.926;6.320;2023-03-01T05:31:25;18.27;;;14.63;;
58101;SDS011;52034;51.926;6.320;2023-03-01T05:32:25;16.97;;;14.73;;
58101;SDS011;52034;51.926;6.320;2023-03-01T05:33:26;18.37;;;14.67;;
58101;SDS011;52034;51.926;6.320;2023-03-01T05:34:31;16.67;;;14.55;;
58101;SDS011;52034;51.926;6.320;2023-03-01T05:35:33;17.23;;;14.15;;
58101;SDS011;52034;51.926;6.320;2023-03-01T05:36:33;15.37;;;13.77;;
58101;SDS011;52034;51.926;6.320;2023-03-01T05:37:34;15.82;;;14.00;;
58101;SDS011;52034;51.926;6.320;2023-03-01T05:38:35;15.43;;;13.75;;
58101;SDS011;52034;51.926;6.320;2023-03-01T05:39:36;16.57;;;13.40;;
58101;SDS011;52034;51.926;6.320;2023-03-01T05:40:36;15.13;;;13.53;;
58101;SDS011;52034;51.926;6.320;2023-03-01T05:41:36;16.37;;;13.40;;
58101;SDS011;52034;51.926;6.320;2023-03-01T05:42:37;16.77;;;14.37;;
58101;SDS011;52034;51.926;6.320;2023-03-01T05:43:37;16.37;;;14.13;;
58101;SDS011;52034;51.926;6.320;2023-03-01T05:44:39;17.30;;;14.15;;
58101;SDS011;52034;51.926;6.320;2023-03-01T05:45:39;16.87;;;14.93;;
58101;SDS011;52034;51.926;6.320;2023-03-01T05:46:40;15.93;;;14.23;;
58101;SDS011;52034;51.926;6.320;2023-03-01T05:47:41;15.93;;;14.33;;
58101;SDS011;52034;51.926;6.320;2023-03-01T05:48:43;18.15;;;13.77;;
58101;SDS011;52034;51.926;6.320;2023-03-01T05:49:44;17.07;;;14.50;;
58101;SDS011;52034;51.926;6.320;2023-03-01T05:50:44;17.77;;;14.23;;
58101;SDS011;52034;51.926;6.320;2023-03-01T05:51:49;16.52;;;14.88;;
58101;SDS011;52034;51.926;6.320;2023-03-01T05:52:52;15.75;;;14.00;;
58101;SDS011;52034;51.926;6.320;2023-03-01T05:53:58;15.50;;;13.60;;
58101;SDS011;52034;51.926;6.320;2023-03-01T05:54:58;17.83;;;14.17;;
58101;SDS011;52034;51.926;6.320;2023-03-01T05:55:58;17.43;;;14.33;;
58101;SDS011;52034;51.926;6.320;2023-03-01T05:56:59;17.30;;;14.47;;
58101;SDS011;52034;51.926;6.320;2023-03-01T05:57:59;16.53;;;14.73;;
58101;SDS011;52034;51.926;6.320;2023-03-01T05:59:01;16.08;;;14.35;;
58101;SDS011;52034;51.926;6.320;2023-03-01T06:01:12;15.80;;;14.10;;
58101;SDS011;52034;51.926;6.320;2023-03-01T06:02:13;15.20;;;13.40;;
58101;SDS011;52034;51.926;6.320;2023-03-01T06:03:14;15.50;;;13.90;;
58101;SDS011;52034;51.926;6.320;2023-03-01T06:04:16;15.60;;;14.00;;
58101;SDS011;52034;51.926;6.320;2023-03-01T06:05:16;16.37;;;14.67;;
58101;SDS011;52034;51.926;6.320;2023-03-01T06:06:17;18.67;;;14.95;;
58101;SDS011;52034;51.926;6.320;2023-03-01T06:07:18;18.17;;;15.23;;
58101;SDS011;52034;51.926;6.320;2023-03-01T06:08:18;16.90;;;15.17;;
58101;SDS011;52034;51.926;6.320;2023-03-01T06:09:20;17.20;;;15.48;;
58101;SDS011;52034;51.926;6.320;2023-03-01T06:10:21;20.43;;;14.83;;
58101;SDS011;52034;51.926;6.320;2023-03-01T06:11:22;17.40;;;15.00;;
58101;SDS011;52034;51.926;6.320;2023-03-01T06:12:22;16.20;;;14.50;;
58101;SDS011;52034;51.926;6.320;2023-03-01T06:13:23;17.43;;;14.77;;
58101;SDS011;52034;51.926;6.320;2023-03-01T06:14:24;18.08;;;15.23;;
58101;SDS011;52034;51.926;6.320;2023-03-01T06:15:25;17.50;;;15.33;;
58101;SDS011;52034;51.926;6.320;2023-03-01T06:16:25;18.20;;;15.05;;
58101;SDS011;52034;51.926;6.320;2023-03-01T06:17:26;17.73;;;15.43;;